Time;durP1;ratioP1;P1;durP2;ratioP2;P2;SDS_P1;SDS_P2;PMS_P1;PMS_P2;Temp;Humidity;BMP_temperature;BMP_pressure;BME280_temperature;BME280_humidity;BME280_pressure;Samples;Min_cycle;Max_cycle;Signal;HPM_P1;HPM_P2
2022/03/20 00:01:29;;;;;;;12.75;7.20;;;;;;;1.49;36.52;102709.06;4424498;32;20094;-75
2022/03/20 00:03:56;;;;;;;14.13;7.37;;;;;;;1.50;36.50;102706.56;4410142;32;20149;-75
2022/03/20 00:06:23;;;;;;;15.57;7.55;;;;;;;1.53;36.37;102695.47;4424405;32;20128;-75
2022/03/20 00:08:52;;;;;;;15.25;7.32;;;;;;;1.51;36.34;102694.47;4410060;32;20109;-75
2022/03/20 00:11:19;;;;;;;14.52;7.28;;;;;;;1.60;36.00;102698.53;4424217;32;20180;-75
2022/03/20 00:13:47;;;;;;;17.95;7.60;;;;;;;1.60;36.15;102693.34;4410079;32;20081;-75
2022/03/20 00:16:14;;;;;;;16.90;8.02;;;;;;;1.66;35.99;102698.91;4424165;32;20093;-75
2022/03/20 00:18:41;;;;;;;13.57;6.32;;;;;;;1.67;36.10;102695.50;4424244;32;20109;-75
2022/03/20 00:21:10;;;;;;;14.32;7.03;;;;;;;1.74;36.10;102693.28;4424302;32;20132;-75
2022/03/20 00:23:37;;;;;;;14.90;6.80;;;;;;;1.69;36.13;102685.19;4424127;32;20085;-75
2022/03/20 00:26:06;;;;;;;12.98;7.00;;;;;;;1.60;36.31;102697.66;4424014;32;20094;-75
2022/03/20 00:28:34;;;;;;;17.12;7.85;;;;;;;1.56;36.26;102701.75;4424160;32;20105;-75
2022/03/20 00:31:02;;;;;;;18.67;7.32;;;;;;;1.50;36.53;102695.28;4409810;32;20444;-75
2022/03/20 00:33:29;;;;;;;14.65;7.85;;;;;;;1.48;36.63;102700.34;4424033;32;20152;-75
2022/03/20 00:35:56;;;;;;;12.85;7.07;;;;;;;1.48;36.63;102705.56;4409693;32;20128;-75
2022/03/20 00:38:24;;;;;;;14.05;7.22;;;;;;;1.47;36.54;102700.28;4424116;32;20162;-75
2022/03/20 00:40:51;;;;;;;23.30;10.95;;;;;;;1.40;36.62;102705.09;4424196;32;20163;-75
2022/03/20 00:43:19;;;;;;;29.00;12.50;;;;;;;1.28;36.98;102708.63;4409733;32;20135;-75
2022/03/20 00:45:46;;;;;;;18.98;10.27;;;;;;;1.17;37.36;102702.75;4409704;32;20515;-75
2022/03/20 00:48:13;;;;;;;17.67;8.40;;;;;;;1.13;37.73;102713.72;4423870;32;20174;-75
2022/03/20 00:50:41;;;;;;;17.27;8.77;;;;;;;1.00;38.06;102712.06;4409724;32;20510;-75
2022/03/20 00:53:08;;;;;;;18.70;8.18;;;;;;;0.92;38.17;102714.16;4423972;32;20147;-75
2022/03/20 00:55:35;;;;;;;16.98;7.90;;;;;;;0.89;38.15;102708.78;4397134;32;20128;-75
2022/03/20 00:58:02;;;;;;;16.60;8.50;;;;;;;0.94;38.39;102706.47;4424062;32;20532;-75
2022/03/20 01:00:31;;;;;;;21.08;8.43;;;;;;;1.01;38.41;102712.94;4409713;32;20085;-75
2022/03/20 01:02:59;;;;;;;20.60;8.43;;;;;;;0.97;38.71;102713.56;4423154;32;20520;-75
2022/03/20 01:05:27;;;;;;;15.07;7.50;;;;;;;0.85;38.93;102706.78;4423822;32;20412;-75
2022/03/20 01:07:54;;;;;;;13.10;7.65;;;;;;;0.77;39.28;102697.59;4423899;32;20178;-75
2022/03/20 01:10:21;;;;;;;17.95;7.75;;;;;;;0.70;39.47;102693.69;4423760;32;20145;-75
2022/03/20 01:12:48;;;;;;;20.33;8.02;;;;;;;0.75;39.58;102694.00;4409605;32;20532;-75
2022/03/20 01:15:16;;;;;;;18.27;8.50;;;;;;;0.73;39.71;102699.88;4423840;32;20132;-75
2022/03/20 01:17:49;;;;;;;14.77;8.07;;;;;;;0.66;39.67;102706.38;4424070;32;20169;-75
2022/03/20 01:20:16;;;;;;;16.95;8.30;;;;;;;0.64;40.09;102710.56;4409513;32;20445;-75
2022/03/20 01:22:45;;;;;;;14.40;7.45;;;;;;;0.55;40.36;102705.66;4423873;32;20135;-75
2022/03/20 01:25:18;;;;;;;15.50;7.90;;;;;;;0.52;40.27;102705.47;4423407;32;20113;-75
2022/03/20 01:27:45;;;;;;;15.73;8.38;;;;;;;0.43;40.68;102707.47;4423710;32;20833;-75
2022/03/20 01:30:13;;;;;;;14.35;7.03;;;;;;;0.35;40.67;102709.50;4423704;32;20153;-75
2022/03/20 01:32:40;;;;;;;18.05;8.35;;;;;;;0.32;40.83;102711.00;4409230;32;20116;-75
2022/03/20 01:35:10;;;;;;;14.90;7.40;;;;;;;0.30;41.08;102720.41;4423617;32;20254;-75
2022/03/20 01:37:37;;;;;;;17.15;8.75;;;;;;;0.28;41.07;102720.28;4423648;32;20144;-75
2022/03/20 01:40:06;;;;;;;16.12;7.80;;;;;;;0.26;41.57;102721.87;4423609;32;20081;-75
2022/03/20 01:42:33;;;;;;;20.73;8.45;;;;;;;0.23;41.95;102726.88;4423646;32;20670;-75
2022/03/20 01:45:18;;;;;;;13.57;8.00;;;;;;;0.22;42.02;102727.66;4409451;32;20117;-75
2022/03/20 01:47:47;;;;;;;13.30;7.28;;;;;;;0.19;42.10;102730.94;4423652;32;20172;-75
2022/03/20 01:50:25;;;;;;;13.75;7.65;;;;;;;0.26;41.96;102734.84;4409394;32;20494;-75
2022/03/20 01:52:54;;;;;;;18.60;8.75;;;;;;;0.27;41.99;102738.34;4423689;32;20234;-75
2022/03/20 01:55:24;;;;;;;14.65;7.78;;;;;;;0.28;41.95;102748.81;4409319;32;20184;-75
2022/03/20 01:57:54;;;;;;;19.27;9.65;;;;;;;0.19;41.96;102743.91;4423391;32;20090;-75
2022/03/20 02:00:24;;;;;;;16.33;7.68;;;;;;;0.14;42.48;102745.31;4423679;32;20176;-75
2022/03/20 02:02:53;;;;;;;11.85;6.75;;;;;;;0.09;42.47;102744.06;4423566;32;20386;-75
2022/03/20 02:05:21;;;;;;;15.35;7.80;;;;;;;0.12;42.49;102754.66;4423481;32;20370;-75
2022/03/20 02:07:49;;;;;;;14.57;8.43;;;;;;;0.14;42.30;102757.34;4423514;32;20101;-75
2022/03/20 02:10:16;;;;;;;16.15;8.55;;;;;;;0.08;42.61;102752.66;4423411;32;20077;-75
2022/03/20 02:12:44;;;;;;;16.50;7.93;;;;;;;-0.11;43.24;102752.16;4423396;32;20097;-75
2022/03/20 02:15:13;;;;;;;15.63;8.05;;;;;;;-0.17;43.19;102752.66;4423410;32;20537;-75
2022/03/20 02:17:43;;;;;;;15.48;8.38;;;;;;;-0.18;43.42;102763.78;4423371;32;20171;-75
2022/03/20 02:20:11;;;;;;;12.48;7.95;;;;;;;-0.27;43.91;102756.28;4423587;32;20161;-75
2022/03/20 02:22:42;;;;;;;16.37;8.20;;;;;;;-0.31;44.15;102763.75;4423431;32;20101;-75
2022/03/20 02:25:10;;;;;;;17.73;8.07;;;;;;;-0.35;44.06;102767.81;4423397;32;20531;-75
2022/03/20 02:27:39;;;;;;;18.40;8.25;;;;;;;-0.41;44.31;102761.28;4423305;32;20180;-75
2022/03/20 02:30:16;;;;;;;16.30;8.75;;;;;;;-0.47;44.25;102758.25;4423306;32;20388;-75
2022/03/20 02:32:47;;;;;;;16.67;8.30;;;;;;;-0.51;44.52;102760.62;4423582;32;20517;-75
2022/03/20 02:35:15;;;;;;;19.83;8.77;;;;;;;-0.50;44.73;102761.53;4423167;32;20094;-75
2022/03/20 02:37:46;;;;;;;15.23;7.87;;;;;;;-0.63;45.02;102767.53;4423242;32;20098;-75
2022/03/20 02:40:15;;;;;;;15.68;8.30;;;;;;;-0.69;45.19;102773.97;4423316;32;20081;-75
2022/03/20 02:42:46;;;;;;;13.80;7.80;;;;;;;-0.79;45.71;102764.63;4423318;32;20139;-75
2022/03/20 02:45:22;;;;;;;15.48;8.20;;;;;;;-0.88;45.92;102767.47;4423448;32;20492;-75
2022/03/20 02:47:51;;;;;;;16.55;7.75;;;;;;;-0.95;46.08;102770.38;4423261;32;20605;-75
2022/03/20 02:50:22;;;;;;;17.27;8.48;;;;;;;-0.92;46.37;102762.81;4423200;32;20160;-75
2022/03/20 02:52:51;;;;;;;17.35;8.68;;;;;;;-0.97;46.48;102775.44;4423273;32;20094;-75
2022/03/20 02:55:21;;;;;;;15.57;8.00;;;;;;;-0.97;46.50;102774.53;4423056;32;20105;-75
2022/03/20 02:57:49;;;;;;;19.37;9.10;;;;;;;-0.94;46.60;102779.06;4423353;32;20119;-75
2022/03/20 03:00:21;;;;;;;17.42;8.95;;;;;;;-0.97;46.75;102775.44;4422972;32;20097;-75
2022/03/20 03:02:50;;;;;;;21.15;9.73;;;;;;;-1.06;46.78;102779.03;4423127;32;20595;-75
2022/03/20 03:05:20;;;;;;;18.17;9.23;;;;;;;-1.13;47.43;102779.37;4422898;32;20093;-75
2022/03/20 03:10:56;;;;;;;19.05;9.13;;;;;;;-1.23;47.58;102785.56;4422930;32;20082;-75
2022/03/20 03:13:34;;;;;;;15.18;8.10;;;;;;;-1.28;47.57;102781.72;4422872;32;20089;-75
2022/03/20 03:16:08;;;;;;;19.23;8.60;;;;;;;-1.31;48.39;102797.94;4422756;32;20093;-75
2022/03/20 03:18:37;;;;;;;19.73;9.10;;;;;;;-1.16;47.91;102797.28;4422860;32;20097;-75
2022/03/20 03:21:09;;;;;;;21.70;9.73;;;;;;;-1.26;47.82;102799.16;4422897;32;20163;-75
2022/03/20 03:23:36;;;;;;;22.55;9.65;;;;;;;-1.39;48.12;102803.31;4422750;32;20492;-75
2022/03/20 03:26:05;;;;;;;20.65;10.13;;;;;;;-1.51;48.33;102813.63;4426209;32;20183;-75
2022/03/20 03:28:34;;;;;;;20.75;9.80;;;;;;;-1.58;48.98;102812.25;4427811;32;20097;-75
2022/03/20 03:31:10;;;;;;;18.05;8.93;;;;;;;-1.56;49.53;102826.19;4427735;32;20081;-75
2022/03/20 03:35:41;;;;;;;25.17;10.35;;;;;;;-1.60;49.60;102826.75;4427761;32;20132;-75
2022/03/20 03:36:27;;;;;;;24.90;10.30;;;;;;;-1.62;49.86;102830.91;4427572;32;20161;-75
2022/03/20 03:38:55;;;;;;;21.17;10.10;;;;;;;-1.73;50.45;102831.78;4427523;32;20097;-75
2022/03/20 03:41:24;;;;;;;22.60;10.02;;;;;;;-1.67;50.60;102837.38;4413302;32;20461;-74
2022/03/20 03:43:52;;;;;;;23.67;9.30;;;;;;;-1.69;50.89;102844.16;4427679;32;20089;-75
2022/03/20 03:46:20;;;;;;;22.58;10.48;;;;;;;-1.71;50.58;102850.88;4427433;32;20089;-75
2022/03/20 03:48:47;;;;;;;21.23;10.95;;;;;;;-1.79;51.11;102852.88;4427688;32;20145;-75
2022/03/20 03:51:14;;;;;;;18.70;9.90;;;;;;;-1.73;51.96;102861.09;4427411;32;20481;-75
2022/03/20 03:53:43;;;;;;;24.87;10.68;;;;;;;-1.69;51.54;102855.38;4427473;32;20116;-75
2022/03/20 03:56:10;;;;;;;18.30;9.90;;;;;;;-1.84;51.34;102858.44;4427493;32;20529;-75
2022/03/20 03:58:37;;;;;;;22.50;10.80;;;;;;;-1.81;51.99;102849.25;4427500;32;20128;-74
2022/03/20 04:01:05;;;;;;;24.20;10.88;;;;;;;-1.79;51.26;102858.03;4427507;32;20438;-74
2022/03/20 04:03:33;;;;;;;24.85;10.80;;;;;;;-1.66;51.33;102858.97;4427396;32;20141;-74
2022/03/20 04:06:04;;;;;;;19.55;10.50;;;;;;;-1.77;51.77;102864.19;4427159;32;20169;-74
2022/03/20 04:08:34;;;;;;;17.87;10.48;;;;;;;-1.75;51.68;102865.25;4427313;32;20105;-75
2022/03/20 04:11:02;;;;;;;23.23;11.35;;;;;;;-1.70;51.83;102868.16;4427209;32;20085;-74
2022/03/20 04:13:29;;;;;;;21.45;10.80;;;;;;;-1.77;51.91;102863.31;4427164;32;20123;-74
2022/03/20 04:15:57;;;;;;;22.85;11.05;;;;;;;-1.87;51.71;102874.63;4427087;32;20093;-75
2022/03/20 04:18:24;;;;;;;33.10;11.70;;;;;;;-1.95;52.36;102873.09;4427036;32;20524;-74
2022/03/20 04:20:52;;;;;;;19.60;10.38;;;;;;;-1.94;52.68;102880.09;4424472;32;79791;-74
2022/03/20 04:26:06;;;;;;;25.75;10.95;;;;;;;-2.07;52.66;102880.81;4426856;32;20097;-74
2022/03/20 04:28:33;;;;;;;21.83;10.77;;;;;;;-2.24;53.18;102876.88;4426884;32;20144;-74
2022/03/20 04:31:02;;;;;;;26.90;12.70;;;;;;;-2.28;53.95;102881.69;4426850;32;20107;-74
2022/03/20 04:33:31;;;;;;;29.98;11.63;;;;;;;-2.17;53.77;102893.75;4426871;32;20081;-74
2022/03/20 04:35:58;;;;;;;27.27;12.32;;;;;;;-2.16;54.23;102892.97;4426222;32;20465;-74
2022/03/20 04:38:26;;;;;;;25.23;12.73;;;;;;;-2.19;54.04;102900.47;4423502;32;20124;-75
2022/03/20 04:40:53;;;;;;;23.10;11.88;;;;;;;-2.25;53.76;102905.19;4424214;32;20081;-74
2022/03/20 04:43:20;;;;;;;26.25;14.10;;;;;;;-2.32;54.12;102908.94;4424033;32;20093;-74
2022/03/20 04:45:47;;;;;;;40.63;18.00;;;;;;;-2.41;53.99;102911.66;4424162;32;20120;-74
2022/03/20 04:59:18;;;;;;;26.90;12.68;;;;;;;-2.49;55.53;102914.41;4423891;32;20118;-74
2022/03/20 05:01:45;;;;;;;26.20;11.45;;;;;;;-2.28;55.38;102930.75;4424060;32;20146;-74
2022/03/20 05:04:14;;;;;;;22.27;11.65;;;;;;;-2.20;54.98;102930.56;4423922;32;20097;-74
2022/03/20 05:06:43;;;;;;;24.33;11.27;;;;;;;-2.14;54.92;102929.28;4423987;32;20420;-74
2022/03/20 05:14:42;;;;;;;23.90;13.10;;;;;;;-2.32;54.95;102937.34;4424078;32;20393;-74
2022/03/20 05:17:10;;;;;;;35.60;14.35;;;;;;;-2.28;55.94;102931.66;4423740;32;20161;-74
2022/03/20 05:19:40;;;;;;;32.47;16.02;;;;;;;-2.36;55.99;102935.28;4424058;32;20431;-74
2022/03/20 05:22:11;;;;;;;38.08;15.02;;;;;;;-2.37;55.98;102941.22;4424014;32;20532;-74
2022/03/20 05:24:40;;;;;;;30.60;14.63;;;;;;;-2.21;56.14;102949.44;4423679;32;20097;-74
2022/03/20 05:27:07;;;;;;;35.75;14.77;;;;;;;-2.07;55.89;102957.41;4423870;32;20098;-75
2022/03/20 05:29:35;;;;;;;37.17;16.55;;;;;;;-1.94;55.04;102958.50;4423695;32;20165;-75
2022/03/20 05:32:04;;;;;;;34.90;17.37;;;;;;;-1.98;55.16;102966.81;4423727;32;20473;-75
2022/03/20 05:34:33;;;;;;;42.97;19.15;;;;;;;-1.83;54.78;102968.81;4423683;32;20098;-75
2022/03/20 05:37:01;;;;;;;37.45;17.58;;;;;;;-1.75;54.99;102971.22;4423568;32;20120;-75
2022/03/20 05:39:29;;;;;;;35.95;16.98;;;;;;;-1.72;54.40;102963.69;4423645;32;20127;-75
2022/03/20 05:41:57;;;;;;;41.95;17.70;;;;;;;-1.82;54.71;102968.91;4423639;32;20455;-75
2022/03/20 05:44:26;;;;;;;31.60;15.95;;;;;;;-1.88;55.52;102971.00;4423696;32;20141;-75
2022/03/20 05:46:55;;;;;;;34.38;13.85;;;;;;;-1.86;55.51;102974.63;4423566;32;20082;-75
2022/03/20 05:49:23;;;;;;;26.25;13.27;;;;;;;-1.62;53.72;102972.19;4423245;32;20427;-75
2022/03/20 05:51:52;;;;;;;24.65;12.65;;;;;;;-1.31;52.76;102971.22;4423533;32;20796;-75
2022/03/20 05:54:19;;;;;;;25.02;12.60;;;;;;;-1.21;53.48;102975.41;4423631;32;20170;-75
2022/03/20 05:59:35;;;;;;;24.08;12.60;;;;;;;-1.31;54.38;102973.81;4411516;32;20164;-75
2022/03/20 06:02:03;;;;;;;23.48;12.43;;;;;;;-1.02;54.32;102972.56;4423532;32;20162;-75
2022/03/20 06:04:31;;;;;;;24.92;11.77;;;;;;;-0.83;52.38;102965.41;4423609;32;20453;-75
2022/03/20 06:06:59;;;;;;;20.73;11.88;;;;;;;-0.71;52.82;102980.94;4423466;32;20089;-75
2022/03/20 06:09:26;;;;;;;27.95;13.23;;;;;;;-0.46;52.13;102978.50;4423465;32;20117;-75
2022/03/20 06:11:55;;;;;;;21.70;11.73;;;;;;;-0.30;52.18;102986.63;4409293;32;20160;-75
2022/03/20 06:14:27;;;;;;;26.60;11.68;;;;;;;-0.07;51.58;102990.94;4423583;32;20144;-75
2022/03/20 06:16:56;;;;;;;25.37;13.32;;;;;;;-0.02;50.87;103001.62;4423326;32;20177;-75
2022/03/20 06:19:23;;;;;;;24.40;13.20;;;;;;;0.05;51.08;102995.19;4409206;32;20603;-75
2022/03/20 06:21:50;;;;;;;19.12;10.82;;;;;;;0.17;50.47;103002.16;4409191;32;20150;-75
2022/03/20 06:24:17;;;;;;;20.50;10.50;;;;;;;0.33;50.25;103003.28;4409052;32;20141;-75
2022/03/20 06:26:45;;;;;;;26.23;13.55;;;;;;;0.55;49.22;103016.06;4409051;32;20109;-75
2022/03/20 06:29:12;;;;;;;17.45;10.30;;;;;;;0.79;48.97;103011.72;4423262;32;20165;-75
2022/03/20 06:31:39;;;;;;;26.12;11.23;;;;;;;1.02;48.88;103023.69;4396398;32;20487;-75
2022/03/20 06:34:07;;;;;;;21.48;11.60;;;;;;;0.98;49.00;103013.88;4423196;32;20089;-75
2022/03/20 06:36:35;;;;;;;19.48;11.25;;;;;;;1.03;48.54;103023.81;4423414;32;20093;-75
2022/03/20 06:39:03;;;;;;;24.40;11.07;;;;;;;1.19;47.97;103023.16;4422834;32;20105;-75
2022/03/20 06:41:30;;;;;;;23.42;11.45;;;;;;;1.48;46.52;103024.22;4422995;32;20124;-75
2022/03/20 06:43:57;;;;;;;19.45;10.85;;;;;;;1.49;47.41;103032.12;4408995;32;20135;-75
2022/03/20 06:46:27;;;;;;;26.77;11.35;;;;;;;1.53;47.00;103041.03;4408793;32;20416;-75
2022/03/20 06:48:55;;;;;;;20.60;10.80;;;;;;;1.55;47.55;103042.91;4423400;32;20127;-75
2022/03/20 06:51:22;;;;;;;20.62;10.30;;;;;;;1.83;46.79;103040.47;4423304;32;20111;-75
2022/03/20 06:53:51;;;;;;;26.90;10.55;;;;;;;1.90;46.43;103032.28;4423271;32;20451;-75
2022/03/20 06:56:19;;;;;;;20.08;10.25;;;;;;;1.95;46.72;103045.59;4408888;32;20438;-75
2022/03/20 06:58:47;;;;;;;21.48;11.02;;;;;;;1.96;46.61;103047.41;4422933;32;20105;-75
2022/03/20 07:01:14;;;;;;;23.17;10.68;;;;;;;2.14;45.96;103047.69;4422089;32;20488;-76
2022/03/20 07:03:42;;;;;;;19.62;10.63;;;;;;;2.15;45.80;103046.87;4423074;32;20102;-76
2022/03/20 07:06:09;;;;;;;20.30;10.30;;;;;;;2.24;45.56;103051.81;4423243;32;20449;-75
2022/03/20 07:08:37;;;;;;;20.77;10.85;;;;;;;2.43;45.38;103044.34;4423106;32;20124;-75
2022/03/20 07:11:04;;;;;;;18.98;10.18;;;;;;;2.57;44.79;103056.53;4422892;32;20073;-76
2022/03/20 07:13:50;;;;;;;20.58;10.45;;;;;;;2.69;44.63;103050.34;4423168;32;20437;-75
2022/03/20 07:16:19;;;;;;;19.23;10.57;;;;;;;2.77;44.81;103054.31;4422798;32;20085;-75
2022/03/20 07:18:47;;;;;;;16.85;10.07;;;;;;;2.94;43.93;103063.19;4422845;32;20110;-75
2022/03/20 07:21:19;;;;;;;23.65;9.98;;;;;;;3.04;43.90;103065.53;4422801;32;20094;-76
2022/03/20 07:23:47;;;;;;;21.90;9.85;;;;;;;3.12;43.76;103066.91;4408479;32;20154;-75
2022/03/20 07:31:45;;;;;;;19.30;9.60;;;;;;;3.68;42.99;103082.50;4422814;32;20086;-76
2022/03/20 07:34:13;;;;;;;21.77;11.35;;;;;;;3.90;41.98;103071.59;4422754;32;20215;-76
2022/03/20 07:36:40;;;;;;;20.08;10.13;;;;;;;4.07;42.00;103080.41;4408305;32;20141;-76
2022/03/20 07:39:07;;;;;;;23.45;11.12;;;;;;;4.17;41.54;103072.31;4422427;32;20545;-76
2022/03/20 07:41:34;;;;;;;15.90;8.73;;;;;;;4.12;41.24;103072.84;4422587;32;20429;-76
2022/03/20 07:44:01;;;;;;;19.83;10.63;;;;;;;4.41;40.13;103075.38;4422450;32;20093;-76
2022/03/20 07:46:29;;;;;;;25.62;10.73;;;;;;;4.30;40.65;103069.56;4407999;32;20196;-75
2022/03/20 07:48:59;;;;;;;18.55;8.85;;;;;;;4.26;40.77;103067.59;4422476;32;20493;-75
2022/03/20 07:51:30;;;;;;;17.02;8.98;;;;;;;4.47;40.39;103061.78;4408265;32;20170;-75
2022/03/20 07:53:58;;;;;;;16.83;8.45;;;;;;;4.72;40.16;103061.44;4408516;32;20415;-75
2022/03/20 07:56:28;;;;;;;19.12;10.15;;;;;;;4.88;39.75;103065.81;4407929;32;20449;-76
2022/03/20 07:58:55;;;;;;;18.62;8.80;;;;;;;5.08;38.71;103072.97;4422151;32;20109;-75
2022/03/20 08:01:23;;;;;;;15.15;8.68;;;;;;;5.19;39.24;103061.38;4422592;32;20090;-75
2022/03/20 08:03:51;;;;;;;17.12;8.43;;;;;;;5.45;39.04;103068.00;4422134;32;20143;-75
2022/03/20 08:06:19;;;;;;;22.55;9.32;;;;;;;5.16;37.96;103065.53;4422159;32;20101;-75
2022/03/20 08:08:47;;;;;;;20.65;8.32;;;;;;;5.40;38.24;103066.84;4422188;32;20175;-75
2022/03/20 08:11:15;;;;;;;14.57;8.50;;;;;;;5.95;36.98;103063.56;4422741;32;20406;-76
2022/03/20 08:13:44;;;;;;;13.95;7.37;;;;;;;6.21;36.51;103063.13;4424066;32;20177;-76
2022/03/20 08:16:15;;;;;;;12.95;6.72;;;;;;;6.11;34.93;103076.63;4424173;32;20552;-75
2022/03/20 08:18:44;;;;;;;12.13;6.75;;;;;;;6.01;34.47;103073.44;4424439;32;20113;-76
2022/03/20 08:21:11;;;;;;;22.87;10.18;;;;;;;5.81;34.66;103064.56;4424161;32;20086;-75
2022/03/20 08:23:40;;;;;;;24.83;10.48;;;;;;;6.04;34.71;103060.50;4424517;32;20116;-75
2022/03/20 08:26:08;;;;;;;10.52;6.12;;;;;;;5.98;34.81;103061.13;4409870;32;20101;-75
2022/03/20 08:28:38;;;;;;;19.45;7.30;;;;;;;6.14;34.65;103058.41;4424402;32;20101;-75
2022/03/20 08:31:06;;;;;;;12.02;7.07;;;;;;;6.30;34.39;103060.06;4424050;32;20073;-75
2022/03/20 08:33:33;;;;;;;12.57;7.00;;;;;;;6.40;34.51;103051.84;4424283;32;20440;-76
2022/03/20 08:36:02;;;;;;;12.60;5.90;;;;;;;6.79;33.68;103048.41;4423857;32;20101;-76
2022/03/20 08:38:29;;;;;;;9.80;5.80;;;;;;;6.88;33.26;103060.19;4423661;32;20093;-76
2022/03/20 08:40:56;;;;;;;13.70;6.15;;;;;;;6.81;32.92;103059.84;4423996;32;20090;-75
2022/03/20 08:43:23;;;;;;;9.25;5.65;;;;;;;6.78;32.13;103065.81;4423967;32;20154;-75
2022/03/20 08:45:51;;;;;;;11.57;6.25;;;;;;;6.51;32.57;103060.22;4423937;32;20101;-75
2022/03/20 08:48:19;;;;;;;9.43;5.87;;;;;;;6.52;32.96;103063.72;4424186;32;20163;-76
2022/03/20 08:50:50;;;;;;;9.55;5.70;;;;;;;6.73;32.79;103063.84;4424004;32;20140;-76
2022/03/20 08:53:18;;;;;;;11.20;6.28;;;;;;;7.04;32.96;103067.06;4424105;32;20097;-75
2022/03/20 08:55:47;;;;;;;18.08;6.30;;;;;;;7.42;31.95;103058.28;4423946;32;20411;-75
2022/03/20 08:58:15;;;;;;;18.25;6.20;;;;;;;7.41;31.08;103052.94;4423990;32;20354;-76
2022/03/20 09:00:42;;;;;;;11.10;5.95;;;;;;;7.15;31.92;103054.44;4423996;32;20538;-76
2022/03/20 09:03:11;;;;;;;13.57;6.07;;;;;;;6.91;31.87;103055.09;4424240;32;20662;-75
2022/03/20 09:05:38;;;;;;;11.23;6.40;;;;;;;7.10;32.08;103056.84;4409817;32;20182;-75
2022/03/20 09:08:05;;;;;;;10.75;6.03;;;;;;;7.53;31.65;103056.13;4423828;32;20097;-75
2022/03/20 09:10:34;;;;;;;9.77;6.00;;;;;;;7.62;31.16;103051.25;4409680;32;20147;-76
2022/03/20 09:13:01;;;;;;;12.20;6.45;;;;;;;7.75;31.09;103042.19;4397140;32;20119;-76
2022/03/20 09:15:29;;;;;;;10.95;5.82;;;;;;;7.92;30.99;103050.78;4423777;32;20169;-76
2022/03/20 09:20:44;;;;;;;7.80;5.00;;;;;;;7.85;30.03;103039.13;4423827;32;20407;-76
2022/03/20 09:23:13;;;;;;;7.97;5.07;;;;;;;7.73;29.59;103037.69;4423246;32;20136;-75
2022/03/20 09:25:40;;;;;;;10.43;5.62;;;;;;;7.78;29.75;103036.19;4423564;32;20123;-75
2022/03/20 09:28:10;;;;;;;8.63;5.15;;;;;;;7.88;29.76;103039.25;4423786;32;20105;-76
2022/03/20 09:30:40;;;;;;;11.20;5.12;;;;;;;8.14;30.15;103021.03;4409626;32;20192;-76
2022/03/20 09:33:08;;;;;;;13.15;5.50;;;;;;;8.47;28.65;103028.50;4409476;32;20081;-75
2022/03/20 09:35:36;;;;;;;8.93;5.15;;;;;;;8.90;29.00;103025.75;4409268;32;20140;-76
2022/03/20 09:38:07;;;;;;;13.23;5.68;;;;;;;8.57;28.67;103031.53;4423798;32;20127;-75
2022/03/20 09:40:37;;;;;;;13.68;5.57;;;;;;;8.98;28.46;103020.81;4423636;32;20459;-76
2022/03/20 09:43:06;;;;;;;7.75;4.62;;;;;;;8.90;28.30;103031.00;4423793;32;20469;-76
2022/03/20 09:45:34;;;;;;;8.45;5.18;;;;;;;9.43;27.28;103016.28;4423676;32;20487;-76
2022/03/20 09:48:01;;;;;;;15.13;6.03;;;;;;;9.39;28.18;103029.28;4423798;32;20102;-76
2022/03/20 09:50:30;;;;;;;16.98;6.50;;;;;;;8.98;27.59;103028.69;4423794;32;20104;-76
2022/03/20 09:52:58;;;;;;;9.45;5.90;;;;;;;8.76;28.38;103040.13;4423891;32;20120;-75
2022/03/20 09:55:25;;;;;;;10.75;5.70;;;;;;;9.06;28.26;103029.87;4409382;32;20537;-75
2022/03/20 09:57:56;;;;;;;12.40;5.68;;;;;;;9.31;27.92;103029.91;4409442;32;20497;-75
2022/03/20 10:00:25;;;;;;;7.80;5.53;;;;;;;9.81;27.81;103035.12;4423758;32;20077;-76
2022/03/20 10:02:53;;;;;;;10.70;6.07;;;;;;;10.25;26.93;103023.47;4409483;32;20135;-74
2022/03/20 10:05:22;;;;;;;8.18;5.22;;;;;;;10.50;27.01;103027.75;4423830;32;20184;-73
2022/03/20 10:07:49;;;;;;;11.82;5.47;;;;;;;10.87;26.83;103010.38;4423757;32;20102;-73
2022/03/20 10:10:23;;;;;;;10.50;6.10;;;;;;;11.08;26.56;103014.47;4423688;32;20086;-73
2022/03/20 10:12:56;;;;;;;9.10;5.30;;;;;;;11.45;26.18;103006.72;4423606;32;20119;-73
2022/03/20 10:15:33;;;;;;;9.48;6.12;;;;;;;10.29;26.65;103006.91;4423750;32;20097;-73
2022/03/20 10:18:20;;;;;;;12.68;6.25;;;;;;;10.18;26.72;102996.84;4423560;32;20089;-73
2022/03/20 10:20:59;;;;;;;9.15;5.75;;;;;;;10.36;27.77;103004.47;4423483;32;20100;-73
2022/03/20 10:23:39;;;;;;;13.93;6.60;;;;;;;10.84;27.26;103002.38;4423471;32;20125;-73
2022/03/20 10:26:15;;;;;;;11.12;5.18;;;;;;;11.47;26.26;103006.75;4423513;32;20514;-73
2022/03/20 10:28:55;;;;;;;10.45;5.75;;;;;;;11.61;25.84;103001.84;4423611;32;20168;-73
2022/03/20 10:31:22;;;;;;;10.50;6.00;;;;;;;11.69;25.56;102989.72;4423419;32;20640;-73
2022/03/20 10:34:01;;;;;;;13.95;6.07;;;;;;;11.64;25.64;102994.00;4422884;32;20109;-73
2022/03/20 10:36:28;;;;;;;9.77;5.90;;;;;;;11.19;25.20;103007.75;4422793;32;20559;-73
2022/03/20 10:38:55;;;;;;;8.75;6.30;;;;;;;11.59;25.67;102999.16;4423200;32;20086;-74
2022/03/20 10:41:34;;;;;;;8.95;5.87;;;;;;;12.08;25.21;102995.09;4423234;32;20107;-73
2022/03/20 10:44:27;;;;;;;9.75;6.43;;;;;;;12.47;25.05;103003.91;4423280;32;20093;-73
2022/03/20 10:47:22;;;;;;;12.68;6.72;;;;;;;12.14;24.17;102986.44;4423193;32;20089;-73
2022/03/20 10:50:10;;;;;;;9.45;6.57;;;;;;;12.70;24.05;102992.09;4423227;32;20109;-73
2022/03/20 10:52:37;;;;;;;;;;;;;;;12.52;24.29;102986.41;4423450;32;20070;-73
2022/03/20 10:55:15;;;;;;;19.37;8.13;;;;;;;12.94;24.76;102982.87;4423190;32;20609;-73
2022/03/20 10:57:43;;;;;;;17.12;6.50;;;;;;;12.34;24.22;102986.91;4423100;32;20443;-73
2022/03/20 11:00:13;;;;;;;10.80;6.70;;;;;;;12.90;24.02;102979.28;4423013;32;20501;-74
2022/03/20 11:02:41;;;;;;;10.05;6.00;;;;;;;12.92;23.76;102982.84;4423096;32;20078;-73
2022/03/20 11:05:09;;;;;;;13.45;6.37;;;;;;;13.39;23.32;102977.56;4422958;32;20489;-73
2022/03/20 11:07:37;;;;;;;11.40;5.57;;;;;;;14.22;22.69;102976.28;4422992;32;20508;-73
2022/03/20 11:10:14;;;;;;;13.75;6.18;;;;;;;14.87;21.92;102956.81;4423192;32;20163;-73
2022/03/20 11:12:43;;;;;;;13.07;5.95;;;;;;;15.20;20.73;102965.16;4422924;32;20086;-73
2022/03/20 11:15:10;;;;;;;8.93;6.10;;;;;;;15.63;20.11;102968.19;4422882;32;20569;-74
2022/03/20 11:17:39;;;;;;;10.48;6.72;;;;;;;16.49;19.40;102958.16;4422790;32;20094;-74
2022/03/20 11:20:07;;;;;;;6.50;5.22;;;;;;;16.69;19.96;102953.81;4422826;32;20164;-74
2022/03/20 11:22:42;;;;;;;7.72;6.07;;;;;;;17.08;18.28;102943.28;4422989;32;20077;-74
2022/03/20 11:25:10;;;;;;;11.65;6.32;;;;;;;17.83;18.42;102943.34;4422770;32;20498;-74
2022/03/20 11:27:42;;;;;;;14.02;6.28;;;;;;;18.00;18.56;102935.31;4422715;32;20508;-74
2022/03/20 11:30:16;;;;;;;10.10;6.50;;;;;;;18.37;18.18;102934.34;4422642;32;20196;-74
2022/03/20 11:32:46;;;;;;;12.63;6.72;;;;;;;17.67;18.33;102932.69;4422630;32;20077;-74
2022/03/20 11:35:14;;;;;;;8.55;6.72;;;;;;;17.27;18.15;102925.56;4422554;32;20469;-74
2022/03/20 11:37:44;;;;;;;9.38;6.62;;;;;;;17.29;18.16;102916.69;4422534;32;20134;-74
2022/03/20 11:40:20;;;;;;;11.43;7.03;;;;;;;17.35;18.75;102915.78;4422476;32;20135;-74
2022/03/20 11:42:49;;;;;;;10.98;6.22;;;;;;;17.34;18.38;102909.56;4422559;32;20146;-74
2022/03/20 11:45:20;;;;;;;7.97;6.03;;;;;;;18.24;17.20;102910.38;4422448;32;20451;-74
2022/03/20 11:47:52;;;;;;;12.27;8.35;;;;;;;18.41;17.43;102900.50;4424445;32;20156;-74
2022/03/20 11:50:30;;;;;;;15.13;7.25;;;;;;;19.14;17.41;102901.00;4424419;32;20552;-74
2022/03/20 11:53:01;;;;;;;7.45;6.43;;;;;;;17.58;17.60;102906.00;4424563;32;20093;-74
2022/03/20 11:55:33;;;;;;;10.55;7.20;;;;;;;15.69;18.67;102899.19;4424661;32;20569;-74
2022/03/20 11:58:16;;;;;;;9.80;6.97;;;;;;;16.91;18.81;102892.66;4424337;32;20132;-74
2022/03/20 12:00:45;;;;;;;13.93;7.70;;;;;;;17.00;18.85;102882.03;4424380;32;20141;-74
2022/03/20 12:03:15;;;;;;;10.57;6.25;;;;;;;16.34;18.90;102880.91;4424326;32;20138;-74